sensor_id;sensor_type;location;lat;lon;timestamp;P1;durP1;ratioP1;P2;durP2;ratioP2
13743;SDS011;6943;52.368;9.966;2022-11-13T00:00:29;23.40;;;18.63;;
13743;SDS011;6943;52.368;9.966;2022-11-13T00:02:55;23.23;;;17.93;;
13743;SDS011;6943;52.368;9.966;2022-11-13T00:05:21;22.27;;;17.23;;
13743;SDS011;6943;52.368;9.966;2022-11-13T00:07:46;23.43;;;17.33;;
13743;SDS011;6943;52.368;9.966;2022-11-13T00:10:12;24.90;;;18.63;;
13743;SDS011;6943;52.368;9.966;2022-11-13T00:12:37;26.63;;;19.57;;
13743;SDS011;6943;52.368;9.966;2022-11-13T00:15:03;24.77;;;17.97;;
13743;SDS011;6943;52.368;9.966;2022-11-13T00:17:29;23.33;;;18.40;;
13743;SDS011;6943;52.368;9.966;2022-11-13T00:19:55;24.87;;;18.20;;
13743;SDS011;6943;52.368;9.966;2022-11-13T00:22:20;27.87;;;18.17;;
13743;SDS011;6943;52.368;9.966;2022-11-13T00:24:46;23.53;;;18.70;;
13743;SDS011;6943;52.368;9.966;2022-11-13T00:27:12;27.57;;;18.67;;
13743;SDS011;6943;52.368;9.966;2022-11-13T00:29:37;27.23;;;19.17;;
13743;SDS011;6943;52.368;9.966;2022-11-13T00:32:04;32.17;;;19.90;;
13743;SDS011;6943;52.368;9.966;2022-11-13T00:34:29;27.67;;;19.37;;
13743;SDS011;6943;52.368;9.966;2022-11-13T00:36:55;26.83;;;19.60;;
13743;SDS011;6943;52.368;9.966;2022-11-13T00:39:20;32.47;;;20.47;;
13743;SDS011;6943;52.368;9.966;2022-11-13T00:41:46;28.90;;;20.27;;
13743;SDS011;6943;52.368;9.966;2022-11-13T00:44:11;27.67;;;20.20;;
13743;SDS011;6943;52.368;9.966;2022-11-13T00:46:37;27.50;;;20.17;;
13743;SDS011;6943;52.368;9.966;2022-11-13T00:49:03;24.73;;;19.63;;
13743;SDS011;6943;52.368;9.966;2022-11-13T00:51:28;28.83;;;18.63;;
13743;SDS011;6943;52.368;9.966;2022-11-13T00:53:54;25.93;;;18.37;;
13743;SDS011;6943;52.368;9.966;2022-11-13T00:56:20;26.57;;;19.23;;
13743;SDS011;6943;52.368;9.966;2022-11-13T00:58:45;23.77;;;18.50;;
13743;SDS011;6943;52.368;9.966;2022-11-13T01:01:12;24.60;;;19.77;;
13743;SDS011;6943;52.368;9.966;2022-11-13T01:03:41;28.27;;;19.67;;
13743;SDS011;6943;52.368;9.966;2022-11-13T01:08:41;25.27;;;19.30;;
13743;SDS011;6943;52.368;9.966;2022-11-13T01:11:08;27.90;;;20.63;;
13743;SDS011;6943;52.368;9.966;2022-11-13T01:13:35;28.37;;;21.07;;
13743;SDS011;6943;52.368;9.966;2022-11-13T01:16:03;31.97;;;21.13;;
13743;SDS011;6943;52.368;9.966;2022-11-13T01:18:30;25.10;;;20.40;;
13743;SDS011;6943;52.368;9.966;2022-11-13T01:21:09;29.43;;;20.60;;
13743;SDS011;6943;52.368;9.966;2022-11-13T01:23:37;27.90;;;20.97;;
13743;SDS011;6943;52.368;9.966;2022-11-13T01:28:33;32.83;;;22.77;;
13743;SDS011;6943;52.368;9.966;2022-11-13T01:30:59;31.67;;;22.33;;
13743;SDS011;6943;52.368;9.966;2022-11-13T01:33:24;33.07;;;22.80;;
13743;SDS011;6943;52.368;9.966;2022-11-13T01:35:50;29.67;;;22.30;;
13743;SDS011;6943;52.368;9.966;2022-11-13T01:38:15;28.87;;;22.47;;
13743;SDS011;6943;52.368;9.966;2022-11-13T01:40:45;28.57;;;21.97;;
13743;SDS011;6943;52.368;9.966;2022-11-13T01:43:24;33.57;;;22.60;;
13743;SDS011;6943;52.368;9.966;2022-11-13T01:48:37;27.43;;;19.73;;
13743;SDS011;6943;52.368;9.966;2022-11-13T01:51:08;24.77;;;18.53;;
13743;SDS011;6943;52.368;9.966;2022-11-13T01:53:37;26.30;;;20.10;;
13743;SDS011;6943;52.368;9.966;2022-11-13T01:56:07;27.30;;;20.57;;
13743;SDS011;6943;52.368;9.966;2022-11-13T01:58:33;25.30;;;20.47;;
13743;SDS011;6943;52.368;9.966;2022-11-13T02:00:59;28.90;;;20.20;;
13743;SDS011;6943;52.368;9.966;2022-11-13T02:03:25;26.97;;;19.83;;
13743;SDS011;6943;52.368;9.966;2022-11-13T02:05:50;27.17;;;18.73;;
13743;SDS011;6943;52.368;9.966;2022-11-13T02:08:17;22.90;;;18.63;;
13743;SDS011;6943;52.368;9.966;2022-11-13T02:10:43;20.43;;;16.63;;
13743;SDS011;6943;52.368;9.966;2022-11-13T02:13:08;25.83;;;17.93;;
13743;SDS011;6943;52.368;9.966;2022-11-13T02:15:35;22.97;;;16.20;;
13743;SDS011;6943;52.368;9.966;2022-11-13T02:18:01;28.40;;;18.33;;
13743;SDS011;6943;52.368;9.966;2022-11-13T02:23:56;20.90;;;16.80;;
13743;SDS011;6943;52.368;9.966;2022-11-13T02:26:15;23.70;;;17.30;;
13743;SDS011;6943;52.368;9.966;2022-11-13T02:28:44;20.63;;;17.50;;
13743;SDS011;6943;52.368;9.966;2022-11-13T02:31:10;23.17;;;17.83;;
13743;SDS011;6943;52.368;9.966;2022-11-13T02:33:37;22.13;;;16.57;;
13743;SDS011;6943;52.368;9.966;2022-11-13T02:36:02;22.93;;;17.23;;
13743;SDS011;6943;52.368;9.966;2022-11-13T02:38:31;25.67;;;17.93;;
13743;SDS011;6943;52.368;9.966;2022-11-13T02:40:58;23.13;;;16.67;;
13743;SDS011;6943;52.368;9.966;2022-11-13T02:43:24;26.83;;;17.37;;
13743;SDS011;6943;52.368;9.966;2022-11-13T02:45:50;25.73;;;17.97;;
13743;SDS011;6943;52.368;9.966;2022-11-13T02:48:15;26.97;;;19.10;;
13743;SDS011;6943;52.368;9.966;2022-11-13T02:50:41;26.67;;;19.27;;
13743;SDS011;6943;52.368;9.966;2022-11-13T02:53:06;26.33;;;20.37;;
13743;SDS011;6943;52.368;9.966;2022-11-13T02:55:32;27.90;;;20.43;;
13743;SDS011;6943;52.368;9.966;2022-11-13T02:57:58;29.07;;;20.67;;
13743;SDS011;6943;52.368;9.966;2022-11-13T03:00:23;31.63;;;22.57;;
13743;SDS011;6943;52.368;9.966;2022-11-13T03:02:49;31.60;;;21.43;;
13743;SDS011;6943;52.368;9.966;2022-11-13T03:05:14;29.43;;;22.13;;
13743;SDS011;6943;52.368;9.966;2022-11-13T03:07:40;29.00;;;21.70;;
13743;SDS011;6943;52.368;9.966;2022-11-13T03:10:07;26.23;;;20.43;;
13743;SDS011;6943;52.368;9.966;2022-11-13T03:12:34;32.77;;;21.23;;
13743;SDS011;6943;52.368;9.966;2022-11-13T03:14:59;26.43;;;21.63;;
13743;SDS011;6943;52.368;9.966;2022-11-13T03:17:25;30.83;;;21.10;;
13743;SDS011;6943;52.368;9.966;2022-11-13T03:19:51;35.40;;;23.27;;
13743;SDS011;6943;52.368;9.966;2022-11-13T03:22:16;28.90;;;20.77;;
13743;SDS011;6943;52.368;9.966;2022-11-13T03:24:42;28.00;;;20.27;;
13743;SDS011;6943;52.368;9.966;2022-11-13T03:27:07;25.83;;;20.10;;
13743;SDS011;6943;52.368;9.966;2022-11-13T03:29:33;25.77;;;19.83;;
13743;SDS011;6943;52.368;9.966;2022-11-13T03:31:58;27.57;;;19.10;;
13743;SDS011;6943;52.368;9.966;2022-11-13T03:34:24;32.67;;;21.30;;
13743;SDS011;6943;52.368;9.966;2022-11-13T03:36:49;31.20;;;21.00;;
13743;SDS011;6943;52.368;9.966;2022-11-13T03:39:15;30.50;;;20.53;;
13743;SDS011;6943;52.368;9.966;2022-11-13T03:41:40;27.37;;;19.60;;
13743;SDS011;6943;52.368;9.966;2022-11-13T03:44:06;29.33;;;20.33;;
13743;SDS011;6943;52.368;9.966;2022-11-13T03:46:32;31.57;;;20.70;;
13743;SDS011;6943;52.368;9.966;2022-11-13T03:48:57;28.60;;;21.70;;
13743;SDS011;6943;52.368;9.966;2022-11-13T03:51:23;26.10;;;20.87;;
13743;SDS011;6943;52.368;9.966;2022-11-13T03:53:48;28.43;;;21.20;;
13743;SDS011;6943;52.368;9.966;2022-11-13T03:56:14;30.73;;;20.27;;
13743;SDS011;6943;52.368;9.966;2022-11-13T03:58:39;29.80;;;21.47;;
13743;SDS011;6943;52.368;9.966;2022-11-13T04:01:05;29.63;;;21.50;;
13743;SDS011;6943;52.368;9.966;2022-11-13T04:03:30;30.47;;;20.83;;
13743;SDS011;6943;52.368;9.966;2022-11-13T04:05:56;32.00;;;21.63;;
13743;SDS011;6943;52.368;9.966;2022-11-13T04:08:21;27.83;;;21.40;;
13743;SDS011;6943;52.368;9.966;2022-11-13T04:10:47;26.93;;;21.07;;
13743;SDS011;6943;52.368;9.966;2022-11-13T04:13:12;26.27;;;20.60;;
13743;SDS011;6943;52.368;9.966;2022-11-13T04:15:38;29.50;;;21.17;;
13743;SDS011;6943;52.368;9.966;2022-11-13T04:18:03;27.93;;;19.97;;
13743;SDS011;6943;52.368;9.966;2022-11-13T04:20:29;24.13;;;19.63;;
13743;SDS011;6943;52.368;9.966;2022-11-13T04:22:55;25.83;;;19.13;;
13743;SDS011;6943;52.368;9.966;2022-11-13T04:25:21;26.80;;;20.30;;
13743;SDS011;6943;52.368;9.966;2022-11-13T04:27:48;24.83;;;19.23;;
13743;SDS011;6943;52.368;9.966;2022-11-13T04:30:14;26.63;;;18.20;;
13743;SDS011;6943;52.368;9.966;2022-11-13T04:32:39;22.90;;;16.97;;
13743;SDS011;6943;52.368;9.966;2022-11-13T04:35:05;28.00;;;19.73;;
13743;SDS011;6943;52.368;9.966;2022-11-13T04:37:31;27.97;;;20.67;;
13743;SDS011;6943;52.368;9.966;2022-11-13T04:39:57;26.83;;;19.67;;
13743;SDS011;6943;52.368;9.966;2022-11-13T04:42:22;30.70;;;21.53;;
13743;SDS011;6943;52.368;9.966;2022-11-13T04:45:06;35.37;;;25.83;;
13743;SDS011;6943;52.368;9.966;2022-11-13T04:47:32;32.43;;;22.80;;
13743;SDS011;6943;52.368;9.966;2022-11-13T04:49:58;33.70;;;25.13;;
13743;SDS011;6943;52.368;9.966;2022-11-13T04:52:23;34.23;;;22.77;;
13743;SDS011;6943;52.368;9.966;2022-11-13T04:54:49;34.30;;;23.03;;
13743;SDS011;6943;52.368;9.966;2022-11-13T04:57:14;29.00;;;21.23;;
13743;SDS011;6943;52.368;9.966;2022-11-13T04:59:40;25.90;;;19.87;;
13743;SDS011;6943;52.368;9.966;2022-11-13T05:02:05;26.47;;;19.63;;
13743;SDS011;6943;52.368;9.966;2022-11-13T05:04:31;25.13;;;18.40;;
13743;SDS011;6943;52.368;9.966;2022-11-13T05:06:56;24.50;;;18.87;;
13743;SDS011;6943;52.368;9.966;2022-11-13T05:09:22;27.13;;;19.47;;
13743;SDS011;6943;52.368;9.966;2022-11-13T05:11:47;27.30;;;19.83;;
13743;SDS011;6943;52.368;9.966;2022-11-13T05:14:13;25.90;;;19.37;;
13743;SDS011;6943;52.368;9.966;2022-11-13T05:16:38;26.90;;;20.57;;
13743;SDS011;6943;52.368;9.966;2022-11-13T05:19:04;28.83;;;20.13;;
13743;SDS011;6943;52.368;9.966;2022-11-13T05:21:31;26.83;;;19.93;;
13743;SDS011;6943;52.368;9.966;2022-11-13T05:23:58;24.60;;;18.73;;
13743;SDS011;6943;52.368;9.966;2022-11-13T05:26:23;25.53;;;19.13;;
13743;SDS011;6943;52.368;9.966;2022-11-13T05:28:50;24.10;;;18.13;;
13743;SDS011;6943;52.368;9.966;2022-11-13T05:31:16;24.30;;;18.00;;
13743;SDS011;6943;52.368;9.966;2022-11-13T05:33:42;24.33;;;18.30;;
13743;SDS011;6943;52.368;9.966;2022-11-13T05:36:09;21.37;;;17.53;;
13743;SDS011;6943;52.368;9.966;2022-11-13T05:38:36;20.10;;;16.37;;
13743;SDS011;6943;52.368;9.966;2022-11-13T05:43:35;20.70;;;15.83;;
13743;SDS011;6943;52.368;9.966;2022-11-13T05:46:03;21.43;;;16.90;;
13743;SDS011;6943;52.368;9.966;2022-11-13T05:48:38;19.33;;;15.90;;
13743;SDS011;6943;52.368;9.966;2022-11-13T05:51:08;21.93;;;16.40;;
13743;SDS011;6943;52.368;9.966;2022-11-13T05:53:34;20.37;;;16.17;;
13743;SDS011;6943;52.368;9.966;2022-11-13T05:56:05;19.53;;;15.50;;
13743;SDS011;6943;52.368;9.966;2022-11-13T05:58:35;20.97;;;15.53;;
13743;SDS011;6943;52.368;9.966;2022-11-13T06:03:30;23.73;;;16.63;;
13743;SDS011;6943;52.368;9.966;2022-11-13T06:05:56;21.93;;;16.33;;
13743;SDS011;6943;52.368;9.966;2022-11-13T06:08:22;23.93;;;18.27;;
13743;SDS011;6943;52.368;9.966;2022-11-13T06:10:47;22.43;;;17.90;;
13743;SDS011;6943;52.368;9.966;2022-11-13T06:13:13;24.87;;;18.43;;
13743;SDS011;6943;52.368;9.966;2022-11-13T06:15:38;22.13;;;17.57;;
13743;SDS011;6943;52.368;9.966;2022-11-13T06:18:04;24.17;;;17.77;;
13743;SDS011;6943;52.368;9.966;2022-11-13T06:20:29;21.80;;;18.17;;
13743;SDS011;6943;52.368;9.966;2022-11-13T06:22:57;23.93;;;18.30;;
13743;SDS011;6943;52.368;9.966;2022-11-13T06:25:23;25.20;;;19.47;;
13743;SDS011;6943;52.368;9.966;2022-11-13T06:27:48;26.73;;;19.40;;
13743;SDS011;6943;52.368;9.966;2022-11-13T06:30:13;25.43;;;19.53;;
13743;SDS011;6943;52.368;9.966;2022-11-13T06:32:39;26.33;;;19.23;;
13743;SDS011;6943;52.368;9.966;2022-11-13T06:35:04;24.90;;;18.87;;
13743;SDS011;6943;52.368;9.966;2022-11-13T06:37:30;26.43;;;19.17;;
13743;SDS011;6943;52.368;9.966;2022-11-13T06:39:56;23.90;;;18.63;;
13743;SDS011;6943;52.368;9.966;2022-11-13T06:42:21;25.57;;;19.47;;
13743;SDS011;6943;52.368;9.966;2022-11-13T06:44:47;24.60;;;18.00;;
13743;SDS011;6943;52.368;9.966;2022-11-13T06:47:12;27.37;;;19.50;;
13743;SDS011;6943;52.368;9.966;2022-11-13T06:49:38;25.73;;;18.53;;
13743;SDS011;6943;52.368;9.966;2022-11-13T06:52:03;23.53;;;19.20;;
13743;SDS011;6943;52.368;9.966;2022-11-13T06:54:29;29.20;;;20.67;;
13743;SDS011;6943;52.368;9.966;2022-11-13T06:56:54;24.97;;;19.90;;
13743;SDS011;6943;52.368;9.966;2022-11-13T06:59:20;27.97;;;20.73;;
13743;SDS011;6943;52.368;9.966;2022-11-13T07:01:45;29.47;;;21.17;;
13743;SDS011;6943;52.368;9.966;2022-11-13T07:04:14;28.73;;;20.93;;
13743;SDS011;6943;52.368;9.966;2022-11-13T07:06:40;23.83;;;19.03;;
13743;SDS011;6943;52.368;9.966;2022-11-13T07:09:05;27.90;;;21.27;;
13743;SDS011;6943;52.368;9.966;2022-11-13T07:11:31;31.77;;;20.93;;
13743;SDS011;6943;52.368;9.966;2022-11-13T07:13:57;31.73;;;22.77;;
13743;SDS011;6943;52.368;9.966;2022-11-13T07:16:22;31.47;;;22.63;;
13743;SDS011;6943;52.368;9.966;2022-11-13T07:18:48;28.90;;;23.07;;
13743;SDS011;6943;52.368;9.966;2022-11-13T07:21:15;28.33;;;21.87;;
13743;SDS011;6943;52.368;9.966;2022-11-13T07:23:41;31.97;;;23.77;;
13743;SDS011;6943;52.368;9.966;2022-11-13T07:26:08;31.23;;;22.43;;
13743;SDS011;6943;52.368;9.966;2022-11-13T07:28:36;31.90;;;23.77;;
13743;SDS011;6943;52.368;9.966;2022-11-13T07:31:02;29.60;;;22.87;;
13743;SDS011;6943;52.368;9.966;2022-11-13T07:33:28;26.40;;;21.03;;
13743;SDS011;6943;52.368;9.966;2022-11-13T07:35:54;33.00;;;24.97;;
13743;SDS011;6943;52.368;9.966;2022-11-13T07:38:20;31.77;;;24.93;;
13743;SDS011;6943;52.368;9.966;2022-11-13T07:40:46;36.30;;;26.60;;
13743;SDS011;6943;52.368;9.966;2022-11-13T07:43:12;31.47;;;25.03;;
13743;SDS011;6943;52.368;9.966;2022-11-13T07:45:38;26.83;;;22.43;;
13743;SDS011;6943;52.368;9.966;2022-11-13T07:48:04;27.50;;;22.17;;
13743;SDS011;6943;52.368;9.966;2022-11-13T07:50:31;23.67;;;19.70;;
13743;SDS011;6943;52.368;9.966;2022-11-13T07:52:59;20.07;;;17.10;;
13743;SDS011;6943;52.368;9.966;2022-11-13T07:55:28;18.23;;;15.53;;
13743;SDS011;6943;52.368;9.966;2022-11-13T07:57:55;18.63;;;14.83;;
13743;SDS011;6943;52.368;9.966;2022-11-13T08:00:21;19.87;;;14.23;;
13743;SDS011;6943;52.368;9.966;2022-11-13T08:02:48;15.03;;;13.43;;
13743;SDS011;6943;52.368;9.966;2022-11-13T08:05:13;14.27;;;12.77;;
13743;SDS011;6943;52.368;9.966;2022-11-13T08:07:39;16.27;;;13.33;;
13743;SDS011;6943;52.368;9.966;2022-11-13T08:10:05;15.57;;;13.83;;
13743;SDS011;6943;52.368;9.966;2022-11-13T08:12:31;15.00;;;13.50;;
13743;SDS011;6943;52.368;9.966;2022-11-13T08:14:57;14.23;;;12.83;;
13743;SDS011;6943;52.368;9.966;2022-11-13T08:17:23;15.57;;;13.50;;
13743;SDS011;6943;52.368;9.966;2022-11-13T08:19:48;15.17;;;13.00;;
13743;SDS011;6943;52.368;9.966;2022-11-13T08:22:14;15.43;;;13.13;;
13743;SDS011;6943;52.368;9.966;2022-11-13T08:24:39;15.03;;;13.03;;
13743;SDS011;6943;52.368;9.966;2022-11-13T08:27:05;14.87;;;12.83;;
13743;SDS011;6943;52.368;9.966;2022-11-13T08:29:31;15.20;;;13.27;;
13743;SDS011;6943;52.368;9.966;2022-11-13T08:31:57;14.67;;;12.60;;
13743;SDS011;6943;52.368;9.966;2022-11-13T08:34:23;14.27;;;12.87;;
13743;SDS011;6943;52.368;9.966;2022-11-13T08:36:48;14.20;;;12.70;;
13743;SDS011;6943;52.368;9.966;2022-11-13T08:39:14;14.37;;;12.43;;
13743;SDS011;6943;52.368;9.966;2022-11-13T08:41:39;14.10;;;12.60;;
13743;SDS011;6943;52.368;9.966;2022-11-13T08:44:05;14.53;;;13.03;;
13743;SDS011;6943;52.368;9.966;2022-11-13T08:46:30;15.90;;;13.23;;
13743;SDS011;6943;52.368;9.966;2022-11-13T08:48:56;15.83;;;13.63;;
13743;SDS011;6943;52.368;9.966;2022-11-13T08:51:21;14.53;;;12.43;;
13743;SDS011;6943;52.368;9.966;2022-11-13T08:53:47;14.23;;;12.73;;
13743;SDS011;6943;52.368;9.966;2022-11-13T08:56:12;15.67;;;14.07;;
13743;SDS011;6943;52.368;9.966;2022-11-13T08:58:38;17.57;;;13.53;;
13743;SDS011;6943;52.368;9.966;2022-11-13T09:01:03;16.20;;;12.87;;
13743;SDS011;6943;52.368;9.966;2022-11-13T09:03:29;16.90;;;13.30;;
13743;SDS011;6943;52.368;9.966;2022-11-13T09:05:55;14.87;;;13.10;;
13743;SDS011;6943;52.368;9.966;2022-11-13T09:08:20;16.93;;;14.20;;
13743;SDS011;6943;52.368;9.966;2022-11-13T09:10:46;18.07;;;14.70;;
13743;SDS011;6943;52.368;9.966;2022-11-13T09:13:11;18.67;;;15.47;;
13743;SDS011;6943;52.368;9.966;2022-11-13T09:15:37;18.73;;;14.80;;
13743;SDS011;6943;52.368;9.966;2022-11-13T09:18:03;17.63;;;15.10;;
13743;SDS011;6943;52.368;9.966;2022-11-13T09:20:29;20.57;;;14.77;;
13743;SDS011;6943;52.368;9.966;2022-11-13T09:23:03;20.20;;;16.40;;
13743;SDS011;6943;52.368;9.966;2022-11-13T09:25:32;23.60;;;17.03;;
13743;SDS011;6943;52.368;9.966;2022-11-13T09:28:00;21.23;;;16.93;;
13743;SDS011;6943;52.368;9.966;2022-11-13T09:30:26;20.80;;;16.30;;
13743;SDS011;6943;52.368;9.966;2022-11-13T09:32:54;28.37;;;17.67;;
13743;SDS011;6943;52.368;9.966;2022-11-13T09:35:21;22.70;;;17.97;;
13743;SDS011;6943;52.368;9.966;2022-11-13T09:38:04;21.63;;;17.87;;
13743;SDS011;6943;52.368;9.966;2022-11-13T09:40:40;22.63;;;18.13;;
13743;SDS011;6943;52.368;9.966;2022-11-13T09:43:41;26.50;;;19.00;;
13743;SDS011;6943;52.368;9.966;2022-11-13T09:46:15;30.17;;;19.03;;
13743;SDS011;6943;52.368;9.966;2022-11-13T09:49:03;26.63;;;20.07;;
13743;SDS011;6943;52.368;9.966;2022-11-13T09:51:58;30.00;;;20.97;;
13743;SDS011;6943;52.368;9.966;2022-11-13T09:54:27;27.60;;;19.97;;
13743;SDS011;6943;52.368;9.966;2022-11-13T09:59:45;31.30;;;21.63;;
13743;SDS011;6943;52.368;9.966;2022-11-13T10:07:46;31.47;;;23.23;;
13743;SDS011;6943;52.368;9.966;2022-11-13T10:13:09;34.60;;;22.87;;
13743;SDS011;6943;52.368;9.966;2022-11-13T10:15:39;34.07;;;23.73;;
13743;SDS011;6943;52.368;9.966;2022-11-13T10:18:17;36.93;;;25.23;;
13743;SDS011;6943;52.368;9.966;2022-11-13T10:20:50;36.73;;;24.93;;
13743;SDS011;6943;52.368;9.966;2022-11-13T10:23:20;38.93;;;26.50;;
13743;SDS011;6943;52.368;9.966;2022-11-13T10:25:49;36.57;;;25.97;;
13743;SDS011;6943;52.368;9.966;2022-11-13T10:28:20;41.27;;;26.23;;
13743;SDS011;6943;52.368;9.966;2022-11-13T10:30:47;43.93;;;26.73;;
13743;SDS011;6943;52.368;9.966;2022-11-13T10:33:17;43.20;;;25.50;;
13743;SDS011;6943;52.368;9.966;2022-11-13T10:35:49;35.00;;;23.77;;
13743;SDS011;6943;52.368;9.966;2022-11-13T10:38:48;36.60;;;23.77;;
13743;SDS011;6943;52.368;9.966;2022-11-13T10:41:19;39.87;;;25.23;;
13743;SDS011;6943;52.368;9.966;2022-11-13T10:47:04;37.83;;;22.47;;
13743;SDS011;6943;52.368;9.966;2022-11-13T10:49:39;38.43;;;22.53;;
13743;SDS011;6943;52.368;9.966;2022-11-13T10:52:15;38.40;;;22.73;;
13743;SDS011;6943;52.368;9.966;2022-11-13T10:54:46;40.93;;;24.70;;
13743;SDS011;6943;52.368;9.966;2022-11-13T10:57:23;41.47;;;24.47;;
13743;SDS011;6943;52.368;9.966;2022-11-13T10:59:54;38.47;;;24.23;;
13743;SDS011;6943;52.368;9.966;2022-11-13T11:02:21;44.80;;;26.93;;
13743;SDS011;6943;52.368;9.966;2022-11-13T11:05:04;45.80;;;26.27;;
13743;SDS011;6943;52.368;9.966;2022-11-13T11:07:40;43.80;;;25.23;;
13743;SDS011;6943;52.368;9.966;2022-11-13T11:10:29;46.77;;;27.17;;
13743;SDS011;6943;52.368;9.966;2022-11-13T11:13:09;39.47;;;25.20;;
13743;SDS011;6943;52.368;9.966;2022-11-13T11:18:28;42.30;;;25.07;;
13743;SDS011;6943;52.368;9.966;2022-11-13T11:20:58;43.50;;;26.07;;
13743;SDS011;6943;52.368;9.966;2022-11-13T11:23:29;44.93;;;26.93;;
13743;SDS011;6943;52.368;9.966;2022-11-13T11:28:44;44.40;;;28.53;;
13743;SDS011;6943;52.368;9.966;2022-11-13T11:31:39;42.67;;;25.47;;
13743;SDS011;6943;52.368;9.966;2022-11-13T11:39:26;55.77;;;32.30;;
13743;SDS011;6943;52.368;9.966;2022-11-13T11:47:29;95.13;;;51.47;;
13743;SDS011;6943;52.368;9.966;2022-11-13T11:49:57;99.50;;;57.90;;
13743;SDS011;6943;52.368;9.966;2022-11-13T11:57:57;91.93;;;53.27;;
13743;SDS011;6943;52.368;9.966;2022-11-13T12:00:49;85.57;;;50.67;;
13743;SDS011;6943;52.368;9.966;2022-11-13T12:06:18;77.70;;;44.93;;
13743;SDS011;6943;52.368;9.966;2022-11-13T12:08:51;80.47;;;48.47;;
13743;SDS011;6943;52.368;9.966;2022-11-13T12:11:50;76.10;;;47.10;;
13743;SDS011;6943;52.368;9.966;2022-11-13T12:14:41;83.07;;;50.00;;
13743;SDS011;6943;52.368;9.966;2022-11-13T12:23:30;77.57;;;50.20;;
13743;SDS011;6943;52.368;9.966;2022-11-13T12:28:59;60.07;;;39.77;;
13743;SDS011;6943;52.368;9.966;2022-11-13T12:31:57;45.30;;;31.33;;
13743;SDS011;6943;52.368;9.966;2022-11-13T12:34:40;43.47;;;28.60;;
13743;SDS011;6943;52.368;9.966;2022-11-13T12:37:12;46.27;;;31.03;;
13743;SDS011;6943;52.368;9.966;2022-11-13T12:39:48;46.20;;;31.40;;
13743;SDS011;6943;52.368;9.966;2022-11-13T12:47:40;53.73;;;33.37;;
13743;SDS011;6943;52.368;9.966;2022-11-13T12:53:01;49.57;;;31.30;;
13743;SDS011;6943;52.368;9.966;2022-11-13T12:55:33;46.00;;;27.83;;
13743;SDS011;6943;52.368;9.966;2022-11-13T12:58:06;42.60;;;26.40;;
13743;SDS011;6943;52.368;9.966;2022-11-13T13:01:05;42.63;;;26.03;;
13743;SDS011;6943;52.368;9.966;2022-11-13T13:03:37;43.83;;;25.77;;
13743;SDS011;6943;52.368;9.966;2022-11-13T13:07:18;42.43;;;25.73;;
13743;SDS011;6943;52.368;9.966;2022-11-13T13:12:36;46.40;;;27.40;;
13743;SDS011;6943;52.368;9.966;2022-11-13T13:15:59;41.13;;;25.33;;
13743;SDS011;6943;52.368;9.966;2022-11-13T13:18:26;42.10;;;24.77;;
13743;SDS011;6943;52.368;9.966;2022-11-13T13:23:38;41.63;;;26.33;;
13743;SDS011;6943;52.368;9.966;2022-11-13T13:26:13;43.80;;;28.10;;
13743;SDS011;6943;52.368;9.966;2022-11-13T13:28:40;44.33;;;25.83;;
13743;SDS011;6943;52.368;9.966;2022-11-13T13:33:41;49.60;;;29.57;;
13743;SDS011;6943;52.368;9.966;2022-11-13T13:36:13;44.67;;;26.37;;
13743;SDS011;6943;52.368;9.966;2022-11-13T13:41:45;46.93;;;27.07;;
13743;SDS011;6943;52.368;9.966;2022-11-13T13:44:30;47.50;;;27.07;;
13743;SDS011;6943;52.368;9.966;2022-11-13T13:47:05;53.80;;;29.40;;
13743;SDS011;6943;52.368;9.966;2022-11-13T13:49:39;53.10;;;30.00;;
13743;SDS011;6943;52.368;9.966;2022-11-13T13:52:04;50.73;;;29.63;;
13743;SDS011;6943;52.368;9.966;2022-11-13T13:54:31;55.40;;;29.20;;
13743;SDS011;6943;52.368;9.966;2022-11-13T13:56:58;48.23;;;27.90;;
13743;SDS011;6943;52.368;9.966;2022-11-13T13:59:32;55.33;;;27.03;;
13743;SDS011;6943;52.368;9.966;2022-11-13T14:02:01;54.90;;;29.57;;
13743;SDS011;6943;52.368;9.966;2022-11-13T14:04:29;56.57;;;28.10;;
13743;SDS011;6943;52.368;9.966;2022-11-13T14:06:58;51.03;;;28.53;;
13743;SDS011;6943;52.368;9.966;2022-11-13T14:09:26;46.13;;;25.00;;
13743;SDS011;6943;52.368;9.966;2022-11-13T14:12:02;51.43;;;28.00;;
13743;SDS011;6943;52.368;9.966;2022-11-13T14:14:40;47.37;;;28.07;;
13743;SDS011;6943;52.368;9.966;2022-11-13T14:17:07;57.57;;;29.10;;
13743;SDS011;6943;52.368;9.966;2022-11-13T14:19:34;53.83;;;28.30;;
13743;SDS011;6943;52.368;9.966;2022-11-13T14:22:01;53.63;;;27.33;;
13743;SDS011;6943;52.368;9.966;2022-11-13T14:24:37;49.80;;;28.30;;
13743;SDS011;6943;52.368;9.966;2022-11-13T14:27:22;53.13;;;28.40;;
13743;SDS011;6943;52.368;9.966;2022-11-13T14:29:59;52.77;;;27.77;;
13743;SDS011;6943;52.368;9.966;2022-11-13T14:32:37;52.20;;;28.73;;
13743;SDS011;6943;52.368;9.966;2022-11-13T14:35:04;53.13;;;27.03;;
13743;SDS011;6943;52.368;9.966;2022-11-13T14:37:33;48.73;;;26.17;;
13743;SDS011;6943;52.368;9.966;2022-11-13T14:40:02;48.10;;;27.23;;
13743;SDS011;6943;52.368;9.966;2022-11-13T14:42:41;46.83;;;26.47;;
13743;SDS011;6943;52.368;9.966;2022-11-13T14:47:58;45.97;;;26.40;;
13743;SDS011;6943;52.368;9.966;2022-11-13T14:50:47;53.47;;;28.67;;
13743;SDS011;6943;52.368;9.966;2022-11-13T14:53:15;49.23;;;26.63;;
13743;SDS011;6943;52.368;9.966;2022-11-13T14:55:52;51.53;;;27.73;;
13743;SDS011;6943;52.368;9.966;2022-11-13T14:58:27;48.30;;;26.47;;
13743;SDS011;6943;52.368;9.966;2022-11-13T15:01:17;50.37;;;25.37;;
13743;SDS011;6943;52.368;9.966;2022-11-13T15:03:45;45.53;;;25.13;;
13743;SDS011;6943;52.368;9.966;2022-11-13T15:06:14;52.97;;;27.70;;
13743;SDS011;6943;52.368;9.966;2022-11-13T15:08:47;52.00;;;25.40;;
13743;SDS011;6943;52.368;9.966;2022-11-13T15:11:16;51.03;;;26.07;;
13743;SDS011;6943;52.368;9.966;2022-11-13T15:13:43;49.60;;;26.57;;
13743;SDS011;6943;52.368;9.966;2022-11-13T15:16:17;55.07;;;27.33;;
13743;SDS011;6943;52.368;9.966;2022-11-13T15:18:54;56.30;;;28.83;;
13743;SDS011;6943;52.368;9.966;2022-11-13T15:21:24;58.40;;;27.83;;
13743;SDS011;6943;52.368;9.966;2022-11-13T15:23:49;63.13;;;29.07;;
13743;SDS011;6943;52.368;9.966;2022-11-13T15:26:15;61.53;;;30.73;;
13743;SDS011;6943;52.368;9.966;2022-11-13T15:28:41;59.17;;;28.87;;
13743;SDS011;6943;52.368;9.966;2022-11-13T15:31:20;63.93;;;29.70;;
13743;SDS011;6943;52.368;9.966;2022-11-13T15:33:49;59.90;;;27.67;;
13743;SDS011;6943;52.368;9.966;2022-11-13T15:36:15;59.53;;;28.73;;
13743;SDS011;6943;52.368;9.966;2022-11-13T15:38:40;54.83;;;26.13;;
13743;SDS011;6943;52.368;9.966;2022-11-13T15:41:10;58.57;;;29.73;;
13743;SDS011;6943;52.368;9.966;2022-11-13T15:43:44;61.13;;;28.87;;
13743;SDS011;6943;52.368;9.966;2022-11-13T15:46:12;54.53;;;27.13;;
13743;SDS011;6943;52.368;9.966;2022-11-13T15:48:39;61.47;;;29.43;;
13743;SDS011;6943;52.368;9.966;2022-11-13T15:51:07;66.30;;;29.97;;
13743;SDS011;6943;52.368;9.966;2022-11-13T15:53:40;58.17;;;26.97;;
13743;SDS011;6943;52.368;9.966;2022-11-13T15:56:05;64.50;;;29.23;;
13743;SDS011;6943;52.368;9.966;2022-11-13T15:58:31;70.40;;;31.33;;
13743;SDS011;6943;52.368;9.966;2022-11-13T16:00:56;65.30;;;31.40;;
13743;SDS011;6943;52.368;9.966;2022-11-13T16:03:22;65.63;;;32.13;;
13743;SDS011;6943;52.368;9.966;2022-11-13T16:05:48;66.90;;;32.77;;
13743;SDS011;6943;52.368;9.966;2022-11-13T16:08:14;68.70;;;33.80;;
13743;SDS011;6943;52.368;9.966;2022-11-13T16:10:40;67.90;;;31.60;;